createdAt,value
2018-07-22T00:01:45.139Z,3.27
2018-07-22T00:04:12.513Z,3.10
2018-07-22T00:06:40.331Z,2.83
2018-07-22T00:09:09.213Z,3.40
2018-07-22T00:11:36.845Z,2.87
2018-07-22T00:14:04.580Z,2.83
2018-07-22T00:16:32.008Z,3.13
2018-07-22T00:18:59.378Z,3.07
2018-07-22T00:21:27.259Z,3.00
2018-07-22T00:23:54.688Z,2.97
2018-07-22T00:26:22.076Z,3.30
2018-07-22T00:28:49.664Z,3.10
2018-07-22T00:31:17.052Z,3.13
2018-07-22T00:33:44.423Z,3.03
2018-07-22T00:36:11.851Z,3.33
2018-07-22T00:38:39.231Z,3.17
2018-07-22T00:41:06.943Z,3.53
2018-07-22T00:43:34.340Z,3.07
2018-07-22T00:46:01.783Z,3.47
2018-07-22T00:48:29.195Z,3.37
2018-07-22T00:50:56.772Z,3.47
2018-07-22T00:53:24.171Z,3.30
2018-07-22T00:55:52.225Z,3.33
2018-07-22T00:58:19.700Z,3.50
2018-07-22T01:00:47.109Z,3.50
2018-07-22T01:03:14.672Z,3.63
2018-07-22T01:05:42.227Z,3.43
2018-07-22T01:08:09.890Z,3.40
2018-07-22T01:10:37.499Z,3.40
2018-07-22T01:13:05.041Z,3.33
2018-07-22T01:15:32.566Z,3.70
2018-07-22T01:18:00.001Z,3.60
2018-07-22T01:20:27.415Z,3.57
2018-07-22T01:22:55.776Z,3.33
2018-07-22T01:25:23.191Z,3.60
2018-07-22T01:27:51.311Z,3.70
2018-07-22T01:30:18.734Z,4.20
2018-07-22T01:32:46.147Z,4.07
2018-07-22T01:37:35.068Z,3.50
2018-07-22T01:40:02.485Z,4.30
2018-07-22T01:42:30.818Z,3.90
2018-07-22T01:44:58.280Z,3.97
2018-07-22T01:47:25.776Z,3.80
2018-07-22T01:49:54.030Z,3.90
2018-07-22T01:52:21.427Z,3.77
2018-07-22T01:54:48.838Z,3.53
2018-07-22T01:57:16.485Z,3.70
2018-07-22T01:59:43.864Z,3.60
2018-07-22T02:02:11.415Z,3.97
2018-07-22T02:04:38.855Z,3.47
2018-07-22T02:07:06.926Z,4.13
2018-07-22T02:09:34.420Z,3.63
2018-07-22T02:12:01.819Z,3.70
2018-07-22T02:14:29.551Z,3.90
2018-07-22T02:16:56.975Z,3.97
2018-07-22T02:19:24.387Z,4.03
2018-07-22T02:21:51.890Z,3.83
2018-07-22T02:24:19.512Z,3.70
2018-07-22T02:26:46.916Z,4.10
2018-07-22T02:29:14.340Z,3.80
2018-07-22T02:31:41.855Z,3.67
2018-07-22T02:34:09.366Z,3.87
2018-07-22T02:36:37.034Z,3.80
2018-07-22T02:39:06.592Z,3.80
2018-07-22T02:41:33.978Z,4.30
2018-07-22T02:44:01.454Z,3.43
2018-07-22T02:46:28.897Z,4.03
2018-07-22T02:48:56.268Z,4.00
2018-07-22T02:51:23.873Z,3.83
2018-07-22T02:53:52.003Z,3.60
2018-07-22T02:56:19.532Z,4.03
2018-07-22T02:58:47.628Z,4.17
2018-07-22T03:01:15.047Z,4.20
2018-07-22T03:03:43.056Z,3.60
2018-07-22T03:06:10.516Z,3.83
2018-07-22T03:08:37.931Z,3.77
2018-07-22T03:11:05.949Z,3.60
2018-07-22T03:13:33.359Z,3.77
2018-07-22T03:16:01.680Z,3.93
2018-07-22T03:18:29.310Z,3.83
2018-07-22T03:20:56.712Z,3.77
2018-07-22T03:23:24.429Z,3.73
2018-07-22T03:25:51.851Z,3.90
2018-07-22T03:28:19.270Z,4.10
2018-07-22T03:30:46.703Z,3.80
2018-07-22T03:33:14.086Z,4.13
2018-07-22T03:35:41.487Z,4.27
2018-07-22T03:38:08.890Z,3.77
2018-07-22T03:40:37.003Z,3.90
2018-07-22T03:43:04.612Z,3.87
2018-07-22T03:45:32.011Z,3.80
2018-07-22T03:47:59.513Z,3.37
2018-07-22T03:50:26.908Z,3.70
2018-07-22T03:52:54.451Z,3.67
2018-07-22T03:55:21.890Z,3.53
2018-07-22T03:57:49.303Z,3.77
2018-07-22T04:00:16.810Z,3.63
2018-07-22T04:02:44.188Z,4.20
2018-07-22T04:05:11.620Z,3.40
2018-07-22T04:07:39.703Z,3.67
2018-07-22T04:10:07.132Z,3.73
2018-07-22T04:12:35.379Z,3.80
2018-07-22T04:15:02.910Z,3.30
2018-07-22T04:17:30.343Z,3.33
2018-07-22T04:19:57.799Z,3.37
2018-07-22T04:22:25.223Z,3.30
2018-07-22T04:24:52.803Z,3.13
2018-07-22T04:27:20.247Z,3.70
2018-07-22T04:29:47.681Z,3.30
2018-07-22T04:32:15.092Z,3.30
2018-07-22T04:34:42.514Z,3.30
2018-07-22T04:37:10.062Z,2.90
2018-07-22T04:39:37.468Z,2.90
2018-07-22T04:42:04.991Z,2.90
2018-07-22T04:44:32.419Z,3.07
2018-07-22T04:46:59.915Z,2.83
2018-07-22T04:49:27.447Z,3.20
2018-07-22T04:51:54.870Z,3.40
2018-07-22T04:54:22.361Z,2.93
2018-07-22T04:56:49.727Z,3.00
2018-07-22T04:59:17.243Z,2.90
2018-07-22T05:01:45.141Z,3.33
2018-07-22T05:04:12.653Z,2.70
2018-07-22T05:06:41.123Z,2.93
2018-07-22T05:09:09.781Z,2.70
2018-07-22T05:11:37.405Z,2.50
2018-07-22T05:14:05.384Z,2.97
2018-07-22T05:16:32.764Z,2.73
2018-07-22T05:19:00.169Z,3.20
2018-07-22T05:21:28.011Z,2.80
2018-07-22T05:23:55.447Z,2.83
2018-07-22T05:26:22.911Z,2.90
2018-07-22T05:28:50.310Z,2.77
2018-07-22T05:31:18.383Z,2.80
2018-07-22T05:33:46.363Z,2.57
2018-07-22T05:36:13.833Z,2.47
2018-07-22T05:38:41.177Z,3.13
2018-07-22T05:41:09.439Z,2.83
2018-07-22T05:43:36.962Z,2.60
2018-07-22T05:46:04.707Z,2.63
2018-07-22T05:48:32.171Z,2.43
2018-07-22T05:50:59.562Z,2.80
2018-07-22T05:53:26.940Z,2.53
2018-07-22T05:55:54.379Z,2.97
2018-07-22T05:58:21.807Z,3.20
2018-07-22T06:00:49.443Z,2.73
2018-07-22T06:03:16.988Z,2.90
2018-07-22T06:05:44.423Z,2.83
2018-07-22T06:08:11.799Z,3.00
2018-07-22T06:10:39.328Z,2.80
2018-07-22T06:13:06.725Z,2.90
2018-07-22T06:15:34.096Z,2.87
2018-07-22T06:18:01.644Z,2.90
2018-07-22T06:20:29.799Z,3.00
2018-07-22T06:22:57.195Z,2.97
2018-07-22T06:25:24.582Z,2.63
2018-07-22T06:27:51.975Z,2.83
2018-07-22T06:30:19.547Z,2.80
2018-07-22T06:32:47.354Z,2.80
2018-07-22T06:35:15.349Z,2.97
2018-07-22T06:37:43.473Z,2.73
2018-07-22T06:40:11.043Z,2.70
2018-07-22T06:42:38.786Z,2.60
2018-07-22T06:45:06.200Z,2.67
2018-07-22T06:47:33.684Z,2.67
2018-07-22T06:50:01.091Z,2.73
2018-07-22T06:52:28.531Z,2.97
2018-07-22T06:54:56.095Z,2.70
2018-07-22T06:57:23.520Z,3.00
2018-07-22T06:59:51.100Z,2.43
2018-07-22T07:02:18.527Z,2.30
2018-07-22T07:04:45.942Z,2.70
2018-07-22T07:07:13.626Z,2.33
2018-07-22T07:09:41.039Z,2.50
2018-07-22T07:12:08.466Z,2.97
2018-07-22T07:14:36.425Z,2.60
2018-07-22T07:17:03.827Z,2.67
2018-07-22T07:19:31.439Z,2.90
2018-07-22T07:21:58.860Z,2.50
2018-07-22T07:24:26.374Z,2.50
2018-07-22T07:26:54.420Z,2.90
2018-07-22T07:29:22.295Z,2.27
2018-07-22T07:31:49.730Z,2.50
2018-07-22T07:34:17.422Z,2.67
2018-07-22T07:36:44.898Z,2.70
2018-07-22T07:39:13.330Z,2.90
2018-07-22T07:41:41.054Z,5.27
2018-07-22T07:44:09.230Z,2.70
2018-07-22T07:46:36.910Z,2.37
2018-07-22T07:49:05.116Z,3.57
2018-07-22T07:51:32.543Z,2.83
2018-07-22T07:54:00.779Z,2.67
2018-07-22T07:56:28.219Z,2.83
2018-07-22T07:58:56.675Z,2.50
2018-07-22T08:01:24.179Z,2.77
2018-07-22T08:03:52.146Z,2.43
2018-07-22T08:06:19.675Z,2.53
2018-07-22T08:08:47.158Z,2.87
2018-07-22T08:11:14.787Z,2.57
2018-07-22T08:13:42.195Z,2.30
2018-07-22T08:16:09.599Z,2.47
2018-07-22T08:18:36.998Z,2.30
2018-07-22T08:21:04.855Z,2.33
2018-07-22T08:23:32.409Z,2.27
2018-07-22T08:25:59.957Z,2.50
2018-07-22T08:28:32.930Z,2.27
2018-07-22T08:31:00.719Z,2.20
2018-07-22T08:33:29.812Z,2.60
2018-07-22T08:35:57.351Z,2.30
2018-07-22T08:38:25.767Z,2.20
2018-07-22T08:40:53.294Z,2.30
2018-07-22T08:43:20.830Z,2.10
2018-07-22T08:45:48.266Z,2.30
2018-07-22T08:48:15.677Z,2.10
2018-07-22T08:50:43.435Z,2.17
2018-07-22T08:53:11.293Z,2.10
2018-07-22T08:55:39.032Z,2.13
2018-07-22T08:58:06.706Z,2.13
2018-07-22T09:00:34.743Z,2.27
2018-07-22T09:03:02.235Z,2.30
2018-07-22T09:05:31.271Z,2.10
2018-07-22T09:07:58.957Z,1.93
2018-07-22T09:10:26.419Z,1.90
2018-07-22T09:12:53.975Z,1.77
2018-07-22T09:15:21.715Z,2.07
2018-07-22T09:17:49.196Z,1.87
2018-07-22T09:20:16.587Z,1.90
2018-07-22T09:22:44.384Z,1.93
2018-07-22T09:25:11.965Z,2.00
2018-07-22T09:27:39.351Z,2.20
2018-07-22T09:30:07.124Z,1.83
2018-07-22T09:32:34.707Z,2.00
2018-07-22T09:35:02.559Z,2.07
2018-07-22T09:37:30.043Z,2.30
2018-07-22T09:39:57.465Z,2.20
2018-07-22T09:42:24.883Z,2.20
2018-07-22T09:44:52.324Z,2.20
2018-07-22T09:47:19.894Z,2.13
2018-07-22T09:49:47.605Z,1.93
2018-07-22T09:52:15.012Z,2.10
2018-07-22T09:54:42.416Z,4.50
2018-07-22T09:57:10.103Z,2.10
2018-07-22T09:59:37.522Z,2.17
2018-07-22T10:02:04.929Z,3.43
2018-07-22T10:04:32.550Z,2.60
2018-07-22T10:07:00.076Z,2.40
2018-07-22T10:09:27.591Z,2.27
2018-07-22T10:11:55.147Z,2.30
2018-07-22T10:14:22.768Z,1.73
2018-07-22T10:16:50.266Z,2.10
2018-07-22T10:19:17.670Z,2.20
2018-07-22T10:21:45.183Z,2.20
2018-07-22T10:24:12.563Z,2.17
2018-07-22T10:26:40.157Z,2.07
2018-07-22T10:29:07.732Z,2.20
2018-07-22T10:31:35.404Z,1.93
2018-07-22T10:34:04.385Z,2.10
2018-07-22T10:36:31.947Z,2.10
2018-07-22T10:39:00.515Z,2.00
2018-07-22T10:41:27.952Z,2.30
2018-07-22T10:43:55.369Z,2.07
2018-07-22T10:46:22.899Z,1.90
2018-07-22T10:48:52.282Z,2.20
2018-07-22T10:51:20.365Z,2.20
2018-07-22T10:53:48.016Z,1.90
2018-07-22T10:56:15.495Z,2.10
2018-07-22T10:58:42.983Z,2.17
2018-07-22T11:01:10.404Z,2.00
2018-07-22T11:03:37.931Z,1.80
2018-07-22T11:06:05.367Z,1.90
2018-07-22T11:08:32.935Z,1.90
2018-07-22T11:11:00.355Z,1.90
2018-07-22T11:13:28.054Z,2.22
2018-07-22T11:15:55.778Z,2.00
2018-07-22T11:18:23.620Z,1.77
2018-07-22T11:20:52.277Z,1.92
2018-07-22T11:23:20.065Z,2.10
2018-07-22T11:25:47.463Z,2.30
2018-07-22T11:28:15.111Z,2.20
2018-07-22T11:30:42.744Z,1.82
2018-07-22T11:33:10.505Z,2.10
2018-07-22T11:35:37.950Z,1.98
2018-07-22T11:38:05.362Z,1.92
2018-07-22T11:40:32.816Z,2.22
2018-07-22T11:43:00.339Z,2.30
2018-07-22T11:45:27.903Z,2.20
2018-07-22T11:47:55.340Z,1.90
2018-07-22T11:50:22.974Z,2.10
2018-07-22T11:52:50.732Z,2.08
2018-07-22T11:55:18.815Z,1.95
2018-07-22T11:57:46.263Z,2.00
2018-07-22T12:00:13.807Z,2.10
2018-07-22T12:02:41.195Z,2.20
2018-07-22T12:05:11.574Z,1.90
2018-07-22T12:07:39.624Z,2.25
2018-07-22T12:10:07.189Z,2.15
2018-07-22T12:12:34.790Z,2.30
2018-07-22T12:15:02.281Z,2.30
2018-07-22T12:17:29.868Z,2.40
2018-07-22T12:19:57.390Z,2.50
2018-07-22T12:22:24.823Z,2.20
2018-07-22T12:24:52.335Z,2.43
2018-07-22T12:27:19.764Z,2.17
2018-07-22T12:29:47.238Z,2.20
2018-07-22T12:32:14.675Z,1.90
2018-07-22T12:34:42.592Z,2.00
2018-07-22T12:37:10.135Z,2.33
2018-07-22T12:39:37.506Z,1.60
2018-07-22T12:42:05.311Z,1.70
2018-07-22T12:44:32.811Z,1.90
2018-07-22T12:47:00.273Z,1.87
2018-07-22T12:49:27.761Z,1.63
2018-07-22T12:51:55.521Z,1.70
2018-07-22T12:54:22.938Z,1.80
2018-07-22T12:56:51.595Z,1.67
2018-07-22T12:59:19.018Z,1.70
2018-07-22T13:01:46.419Z,1.80
2018-07-22T13:04:13.897Z,1.77
2018-07-22T13:06:42.826Z,1.90
2018-07-22T13:09:11.083Z,1.67
2018-07-22T13:11:38.578Z,2.00
2018-07-22T13:14:06.687Z,1.60
2018-07-22T13:16:34.099Z,1.90
2018-07-22T13:19:01.657Z,2.03
2018-07-22T13:21:29.290Z,2.30
2018-07-22T13:23:57.278Z,2.00
2018-07-22T13:26:24.694Z,2.00
2018-07-22T13:28:52.896Z,1.60
2018-07-22T13:31:20.343Z,1.93
2018-07-22T13:33:47.823Z,1.67
2018-07-22T13:36:15.341Z,1.70
2018-07-22T13:38:42.927Z,1.90
2018-07-22T13:41:10.558Z,1.50
2018-07-22T13:43:38.082Z,1.80
2018-07-22T13:46:05.781Z,1.70
2018-07-22T13:48:33.190Z,1.80
2018-07-22T13:51:01.780Z,1.80
2018-07-22T13:53:29.847Z,1.80
2018-07-22T13:55:57.355Z,1.70
2018-07-22T13:58:24.756Z,1.73
2018-07-22T14:00:52.282Z,1.60
2018-07-22T14:03:20.384Z,1.80
2018-07-22T14:05:48.028Z,1.80
2018-07-22T14:08:16.198Z,1.90
2018-07-22T14:10:43.659Z,1.73
2018-07-22T14:13:11.064Z,1.70
2018-07-22T14:15:38.617Z,1.80
2018-07-22T14:18:06.283Z,1.70
2018-07-22T14:20:34.711Z,1.70
2018-07-22T14:23:02.551Z,1.60
2018-07-22T14:25:29.954Z,1.60
2018-07-22T14:27:57.472Z,1.77
2018-07-22T14:30:25.595Z,1.53
2018-07-22T14:32:53.247Z,1.50
2018-07-22T14:35:20.757Z,1.70
2018-07-22T14:37:48.158Z,1.80
2018-07-22T14:40:15.978Z,1.93
2018-07-22T14:42:44.528Z,1.87
2018-07-22T14:45:12.064Z,1.50
2018-07-22T14:47:39.520Z,1.70
2018-07-22T14:50:07.707Z,1.80
2018-07-22T14:52:35.327Z,1.80
2018-07-22T14:55:03.055Z,1.60
2018-07-22T14:57:30.464Z,1.67
2018-07-22T14:59:58.008Z,1.40
2018-07-22T15:02:26.247Z,1.70
2018-07-22T15:04:53.631Z,1.60
2018-07-22T15:07:21.007Z,1.60
2018-07-22T15:09:48.596Z,1.73
2018-07-22T15:12:16.374Z,1.70
2018-07-22T15:14:43.859Z,1.87
2018-07-22T15:17:11.675Z,2.03
2018-07-22T15:19:39.591Z,1.50
2018-07-22T15:22:07.354Z,1.63
2018-07-22T15:24:34.768Z,1.70
2018-07-22T15:27:02.177Z,1.53
2018-07-22T15:29:29.650Z,1.80
2018-07-22T15:31:57.046Z,1.80
2018-07-22T15:34:24.707Z,1.73
2018-07-22T15:36:52.409Z,2.00
2018-07-22T15:39:19.840Z,1.80
2018-07-22T15:41:47.325Z,1.50
2018-07-22T15:44:14.711Z,1.87
2018-07-22T15:46:42.255Z,1.80
2018-07-22T15:49:09.671Z,1.80
2018-07-22T15:51:37.672Z,1.57
2018-07-22T15:54:05.467Z,1.60
2018-07-22T15:56:32.888Z,1.80
2018-07-22T15:59:00.659Z,1.70
2018-07-22T16:01:28.055Z,1.77
2018-07-22T16:03:55.459Z,1.80
2018-07-22T16:06:23.036Z,1.70
2018-07-22T16:08:50.554Z,1.90
2018-07-22T16:11:18.032Z,1.80
2018-07-22T16:13:45.417Z,1.80
2018-07-22T16:16:13.191Z,2.13
2018-07-22T16:18:40.715Z,1.63
2018-07-22T16:21:08.091Z,1.80
2018-07-22T16:23:35.900Z,1.80
2018-07-22T16:26:03.602Z,1.90
2018-07-22T16:28:31.067Z,2.10
2018-07-22T16:30:58.608Z,1.97
2018-07-22T16:33:26.134Z,2.03
2018-07-22T16:35:53.535Z,1.80
2018-07-22T16:38:21.227Z,2.03
2018-07-22T16:40:48.771Z,2.13
2018-07-22T16:43:16.259Z,1.90
2018-07-22T16:45:43.668Z,1.80
2018-07-22T16:48:11.146Z,2.00
2018-07-22T16:50:38.584Z,2.27
2018-07-22T16:53:06.076Z,2.20
2018-07-22T16:55:33.499Z,2.40
2018-07-22T16:58:01.362Z,2.13
2018-07-22T17:00:28.782Z,2.00
2018-07-22T17:02:56.176Z,2.13
2018-07-22T17:05:23.643Z,1.87
2018-07-22T17:07:51.039Z,1.77
2018-07-22T17:10:18.948Z,2.00
2018-07-22T17:12:46.904Z,1.87
2018-07-22T17:15:14.315Z,2.12
2018-07-22T17:17:43.072Z,2.20
2018-07-22T17:20:10.620Z,2.15
2018-07-22T17:22:38.059Z,1.90
2018-07-22T17:25:05.738Z,1.90
2018-07-22T17:27:33.123Z,1.72
2018-07-22T17:30:00.531Z,1.90
2018-07-22T17:32:28.021Z,1.90
2018-07-22T17:34:55.581Z,2.10
2018-07-22T17:37:23.383Z,2.00
2018-07-22T17:39:51.107Z,1.90
2018-07-22T17:42:18.876Z,2.37
2018-07-22T17:44:46.667Z,2.10
2018-07-22T17:47:14.170Z,2.17
2018-07-22T17:49:41.591Z,1.90
2018-07-22T17:52:09.013Z,2.05
2018-07-22T17:54:36.862Z,1.95
2018-07-22T17:57:04.367Z,2.22
2018-07-22T17:59:32.036Z,2.30
2018-07-22T18:01:59.447Z,2.17
2018-07-22T18:04:26.975Z,2.10
2018-07-22T18:06:54.770Z,2.40
2018-07-22T18:09:22.256Z,2.20
2018-07-22T18:11:49.623Z,2.47
2018-07-22T18:14:17.439Z,2.40
2018-07-22T18:16:44.809Z,2.33
2018-07-22T18:19:12.327Z,2.40
2018-07-22T18:21:39.746Z,2.10
2018-07-22T18:24:07.244Z,2.33
2018-07-22T18:26:34.653Z,2.40
2018-07-22T18:29:02.191Z,2.07
2018-07-22T18:31:29.567Z,2.40
2018-07-22T18:33:57.063Z,2.50
2018-07-22T18:36:24.468Z,2.40
2018-07-22T18:38:51.852Z,2.33
2018-07-22T18:41:19.390Z,2.50
2018-07-22T18:43:46.957Z,2.33
2018-07-22T18:46:14.599Z,2.43
2018-07-22T18:48:42.125Z,2.10
2018-07-22T18:51:09.476Z,2.40
2018-07-22T18:53:36.971Z,2.73
2018-07-22T18:56:04.431Z,2.30
2018-07-22T18:58:31.932Z,2.47
2018-07-22T19:00:59.444Z,2.47
2018-07-22T19:03:27.116Z,2.43
2018-07-22T19:05:54.519Z,2.50
2018-07-22T19:08:21.887Z,2.47
2018-07-22T19:10:49.495Z,2.30
2018-07-22T19:13:17.586Z,2.47
2018-07-22T19:15:45.015Z,2.63
2018-07-22T19:18:12.484Z,2.30
2018-07-22T19:20:39.895Z,2.30
2018-07-22T19:23:07.694Z,2.30
2018-07-22T19:25:35.147Z,3.07
2018-07-22T19:28:02.571Z,2.40
2018-07-22T19:30:29.996Z,2.53
2018-07-22T19:32:57.512Z,2.60
2018-07-22T19:35:25.163Z,2.60
2018-07-22T19:37:52.742Z,3.00
2018-07-22T19:40:20.246Z,2.97
2018-07-22T19:42:48.290Z,3.20
2018-07-22T19:45:15.814Z,3.03
2018-07-22T19:47:43.399Z,3.07
2018-07-22T19:50:10.807Z,2.97
2018-07-22T19:52:38.302Z,2.70
2018-07-22T19:55:05.874Z,2.70
2018-07-22T19:57:33.342Z,2.60
2018-07-22T20:00:00.715Z,2.87
2018-07-22T20:02:28.087Z,2.67
2018-07-22T20:04:55.631Z,2.80
2018-07-22T20:07:23.187Z,2.83
2018-07-22T20:09:50.547Z,2.77
2018-07-22T20:12:18.067Z,2.90
2018-07-22T20:14:45.819Z,3.03
2018-07-22T20:17:13.275Z,2.93
2018-07-22T20:19:41.132Z,2.93
2018-07-22T20:22:09.574Z,3.00
2018-07-22T20:24:37.275Z,2.90
2018-07-22T20:27:05.019Z,2.83
2018-07-22T20:29:32.517Z,2.80
2018-07-22T20:31:59.893Z,3.17
2018-07-22T20:34:27.379Z,3.00
2018-07-22T20:36:54.775Z,3.10
2018-07-22T20:39:22.347Z,3.37
2018-07-22T20:41:49.888Z,2.83
2018-07-22T20:44:17.882Z,3.13
2018-07-22T20:46:45.333Z,3.43
2018-07-22T20:49:12.859Z,3.10
2018-07-22T20:51:40.298Z,3.43
2018-07-22T20:54:08.100Z,3.60
2018-07-22T20:56:35.499Z,3.40
2018-07-22T20:59:02.884Z,3.43
2018-07-22T21:01:30.374Z,3.27
2018-07-22T21:03:58.067Z,3.20
2018-07-22T21:06:25.630Z,3.33
2018-07-22T21:08:53.359Z,3.07
2018-07-22T21:11:20.837Z,3.27
2018-07-22T21:13:48.219Z,3.13
2018-07-22T21:16:15.604Z,3.17
2018-07-22T21:18:43.123Z,3.13
2018-07-22T21:21:10.621Z,3.30
2018-07-22T21:23:38.203Z,3.10
2018-07-22T21:26:05.619Z,3.03
2018-07-22T21:28:33.129Z,3.50
2018-07-22T21:31:00.519Z,3.30
2018-07-22T21:33:28.064Z,3.43
2018-07-22T21:35:55.443Z,3.57
2018-07-22T21:38:22.816Z,3.60
2018-07-22T21:40:50.429Z,3.60
2018-07-22T21:43:17.864Z,3.23
2018-07-22T21:45:45.319Z,3.50
2018-07-22T21:48:12.803Z,3.43
2018-07-22T21:50:40.190Z,3.63
2018-07-22T21:53:07.583Z,3.30
2018-07-22T21:55:35.237Z,3.43
2018-07-22T21:58:02.607Z,3.50
2018-07-22T22:00:35.432Z,3.23
2018-07-22T22:03:03.979Z,3.30
2018-07-22T22:05:31.463Z,3.37
2018-07-22T22:07:59.093Z,3.27
2018-07-22T22:10:26.965Z,3.40
2018-07-22T22:12:55.036Z,3.90
2018-07-22T22:15:27.729Z,3.50
2018-07-22T22:17:56.626Z,3.80
2018-07-22T22:20:24.189Z,3.27
2018-07-22T22:22:51.947Z,3.63
2018-07-22T22:25:19.414Z,3.97
2018-07-22T22:27:46.870Z,3.90
2018-07-22T22:30:15.920Z,3.80
2018-07-22T22:32:43.945Z,4.00
2018-07-22T22:35:11.327Z,4.17
2018-07-22T22:37:39.478Z,3.47
2018-07-22T22:40:06.907Z,3.70
2018-07-22T22:42:34.340Z,3.73
2018-07-22T22:45:01.859Z,3.40
2018-07-22T22:47:29.363Z,3.33
2018-07-22T22:49:57.027Z,3.63
2018-07-22T22:52:24.526Z,3.60
2018-07-22T22:54:51.899Z,3.73
2018-07-22T22:57:19.483Z,3.80
2018-07-22T22:59:46.882Z,3.83
2018-07-22T23:02:14.382Z,3.53
2018-07-22T23:04:41.772Z,3.87
2018-07-22T23:07:09.160Z,3.87
2018-07-22T23:09:36.646Z,3.57
2018-07-22T23:12:04.229Z,3.50
2018-07-22T23:14:31.763Z,3.90
2018-07-22T23:16:59.748Z,3.93
2018-07-22T23:19:27.120Z,4.00
2018-07-22T23:21:54.665Z,3.60
2018-07-22T23:24:22.051Z,3.90
2018-07-22T23:26:49.427Z,3.60
2018-07-22T23:29:16.987Z,3.60
2018-07-22T23:31:44.406Z,4.07
2018-07-22T23:34:11.879Z,3.60
2018-07-22T23:36:39.271Z,4.10
2018-07-22T23:39:07.787Z,3.60
2018-07-22T23:41:35.188Z,3.97
2018-07-22T23:44:02.606Z,4.00
2018-07-22T23:46:30.123Z,3.93
2018-07-22T23:48:57.646Z,3.93
2018-07-22T23:51:25.386Z,4.20
2018-07-22T23:53:52.763Z,4.33
2018-07-22T23:56:20.131Z,4.20
2018-07-22T23:58:47.754Z,3.70
